Time;durP1;ratioP1;P1;durP2;ratioP2;P2;SDS_P1;SDS_P2;PMS_P1;PMS_P2;Temp;Humidity;BMP_temperature;BMP_pressure;BME280_temperature;BME280_humidity;BME280_pressure;Samples;Min_cycle;Max_cycle;Signal;HPM_P1;HPM_P2
2023/10/27 00:00:33;;;;;;;;;;;8.30;83.40;;;;;;4172707;28;19923;-86
2023/10/27 00:02:53;;;;;;;;;;;8.30;82.70;;;;;;4174846;28;19923;-85
2023/10/27 00:05:12;;;;;;;;;;;8.40;82.70;;;;;;4169320;28;19972;-85
2023/10/27 00:07:31;;;;;;;;;;;8.50;82.70;;;;;;4183540;28;19927;-85
2023/10/27 00:09:54;;;;;;;;;;;8.30;82.30;;;;;;4175629;28;20006;-87
2023/10/27 00:12:13;;;;;;;;;;;8.40;83.00;;;;;;4181309;28;19908;-84
2023/10/27 00:14:33;;;;;;;;;;;8.40;82.20;;;;;;4188705;28;19912;-86
2023/10/27 00:16:54;;;;;;;;;;;8.40;82.30;;;;;;4196951;28;19955;-85
2023/10/27 00:19:13;;;;;;;;;;;8.30;82.20;;;;;;4165691;28;19940;-84
2023/10/27 00:21:35;;;;;;;;;;;8.40;82.20;;;;;;4181205;28;20441;-85
2023/10/27 00:23:54;;;;;;;;;;;8.40;82.30;;;;;;4172779;28;19996;-84
2023/10/27 00:26:13;;;;;;;;;;;8.20;82.10;;;;;;4164177;28;19960;-84
2023/10/27 00:28:32;;;;;;;;;;;8.30;82.10;;;;;;4175068;28;19929;-85
2023/10/27 00:30:54;;;;;;;;;;;8.20;82.10;;;;;;4176449;28;20006;-86
2023/10/27 00:33:14;;;;;;;;;;;8.20;83.00;;;;;;4178960;28;20329;-84
2023/10/27 00:35:33;;;;;;;;;;;8.40;83.30;;;;;;4178480;28;19971;-84
2023/10/27 00:37:52;;;;;;;;;;;8.30;82.50;;;;;;4167061;28;19952;-85
2023/10/27 00:40:11;;;;;;;;;;;8.40;82.30;;;;;;4164357;28;19951;-85
2023/10/27 00:42:31;;;;;;;;;;;8.30;82.10;;;;;;4159185;28;19968;-84
2023/10/27 00:44:50;;;;;;;;;;;8.30;82.40;;;;;;4166612;28;19928;-85
2023/10/27 00:47:10;;;;;;;;;;;8.30;82.30;;;;;;4157187;28;19951;-84
2023/10/27 00:49:30;;;;;;;;;;;8.30;82.40;;;;;;4159691;28;19932;-84
2023/10/27 00:51:49;;;;;;;;;;;8.40;83.00;;;;;;4177956;28;19973;-87
2023/10/27 00:54:09;;;;;;;;;;;8.40;82.30;;;;;;4166217;28;19920;-85
2023/10/27 00:56:29;;;;;;;;;;;8.20;82.30;;;;;;4175945;28;20492;-86
2023/10/27 00:58:49;;;;;;;;;;;8.30;82.20;;;;;;4178942;28;19931;-87
2023/10/27 01:01:10;;;;;;;;;;;8.20;81.90;;;;;;4173880;28;19932;-84
2023/10/27 01:03:29;;;;;;;;;;;8.30;83.10;;;;;;4160765;28;20341;-85
2023/10/27 01:05:48;;;;;;;;;;;8.10;82.20;;;;;;4170592;28;19930;-85
2023/10/27 01:08:08;;;;;;;;;;;8.30;83.00;;;;;;4161529;28;19924;-86
2023/10/27 01:10:27;;;;;;;;;;;8.20;82.30;;;;;;4162090;28;19992;-86
2023/10/27 01:12:50;;;;;;;;;;;8.20;82.30;;;;;;4171128;28;19924;-86
2023/10/27 01:15:09;;;;;;;;;;;8.20;82.00;;;;;;4172263;28;19920;-85
2023/10/27 01:17:29;;;;;;;;;;;8.20;82.70;;;;;;4168763;28;20793;-85
2023/10/27 01:19:48;;;;;;;;;;;8.10;82.60;;;;;;4156737;28;19924;-84
2023/10/27 01:22:07;;;;;;;;;;;8.20;81.70;;;;;;4158654;28;19924;-86
2023/10/27 01:24:27;;;;;;;;;;;8.20;81.60;;;;;;4175004;28;22079;-86
2023/10/27 01:26:46;;;;;;;;;;;8.20;81.80;;;;;;4169570;28;19970;-85
2023/10/27 01:29:06;;;;;;;;;;;8.30;81.80;;;;;;4159260;28;19920;-85
2023/10/27 01:31:25;;;;;;;;;;;8.30;81.50;;;;;;4181513;28;19967;-86
2023/10/27 01:33:44;;;;;;;;;;;8.20;81.30;;;;;;4178122;28;19919;-85
2023/10/27 01:36:04;;;;;;;;;;;8.20;81.60;;;;;;4159791;28;19980;-85
2023/10/27 01:38:25;;;;;;;;;;;8.20;81.40;;;;;;4159659;28;20019;-86
2023/10/27 01:40:45;;;;;;;;;;;8.20;81.00;;;;;;4176019;28;19923;-85
2023/10/27 01:43:04;;;;;;;;;;;8.10;81.00;;;;;;4171527;28;19967;-86
2023/10/27 01:45:23;;;;;;;;;;;8.20;80.80;;;;;;4166174;28;19928;-84
2023/10/27 01:47:42;;;;;;;;;;;8.30;81.40;;;;;;4179745;28;19912;-86
2023/10/27 01:50:02;;;;;;;;;;;8.20;80.70;;;;;;4173281;28;19974;-85
2023/10/27 01:52:21;;;;;;;;;;;8.10;81.00;;;;;;4156504;28;19920;-85
2023/10/27 01:54:40;;;;;;;;;;;8.20;81.00;;;;;;4158584;28;20000;-85
2023/10/27 01:57:02;;;;;;;;;;;8.10;80.80;;;;;;4155820;28;20039;-85
2023/10/27 01:59:21;;;;;;;;;;;8.20;81.60;;;;;;4170232;28;20465;-85
2023/10/27 02:01:43;;;;;;;;;;;8.10;81.10;;;;;;4152907;28;20039;-85
2023/10/27 02:04:02;;;;;;;;;;;8.10;81.00;;;;;;4174834;28;20003;-85
2023/10/27 02:06:25;;;;;;;;;;;8.00;80.80;;;;;;4159806;28;19928;-85
2023/10/27 02:08:47;;;;;;;;;;;8.10;80.90;;;;;;4172710;28;19927;-87
2023/10/27 02:11:06;;;;;;;;;;;8.00;80.90;;;;;;4173351;28;19920;-85
2023/10/27 02:13:25;;;;;;;;;;;8.10;81.20;;;;;;4160417;28;19988;-85
2023/10/27 02:15:45;;;;;;;;;;;8.10;81.40;;;;;;4172630;28;19972;-86
2023/10/27 02:18:04;;;;;;;;;;;8.10;81.20;;;;;;4174308;28;19920;-84
2023/10/27 02:20:23;;;;;;;;;;;8.10;81.20;;;;;;4172978;28;20008;-84
2023/10/27 02:22:43;;;;;;;;;;;8.10;81.30;;;;;;4161117;28;19937;-85
2023/10/27 02:25:03;;;;;;;;;;;8.30;81.70;;;;;;4169720;28;19975;-84
2023/10/27 02:27:22;;;;;;;;;;;8.10;81.30;;;;;;4162604;28;19932;-85
2023/10/27 02:29:41;;;;;;;;;;;8.30;81.50;;;;;;4169661;28;20309;-86
2023/10/27 02:32:01;;;;;;;;;;;8.10;82.20;;;;;;4170666;28;19970;-84
2023/10/27 02:34:10;;;;;;;;;;;8.20;81.40;;;;;;4150567;28;19921;-85
2023/10/27 02:36:11;;;;;;;;;;;8.20;81.20;;;;;;4176741;28;19913;-84
2023/10/27 02:38:12;;;;;;;;;;;8.30;81.10;;;;;;4172094;28;19921;-85
2023/10/27 02:40:13;;;;;;;;;;;8.30;80.70;;;;;;4141590;28;20000;-86
2023/10/27 02:42:13;;;;;;;;;;;8.20;80.40;;;;;;4143510;28;19922;-85
2023/10/27 02:44:14;;;;;;;;;;;8.30;80.40;;;;;;4148543;28;20047;-86
2023/10/27 02:46:15;;;;;;;;;;;8.40;80.40;;;;;;4143284;28;19917;-85
2023/10/27 02:48:16;;;;;;;;;;;8.30;80.80;;;;;;4174676;28;19921;-84
2023/10/27 02:50:36;;;;;;;;;;;8.30;80.10;;;;;;4161690;28;19920;-84
2023/10/27 02:52:57;;;;;;;;;;;8.30;79.90;;;;;;4173971;28;19919;-85
2023/10/27 02:55:18;;;;;;;;;;;8.30;80.00;;;;;;4159634;28;19917;-85
2023/10/27 02:57:39;;;;;;;;;;;8.50;79.80;;;;;;4160025;28;19924;-84
2023/10/27 02:59:59;;;;;;;;;;;8.40;79.60;;;;;;4174302;28;19959;-85
2023/10/27 03:02:20;;;;;;;;;;;8.40;79.80;;;;;;4176920;28;20334;-85
2023/10/27 03:04:40;;;;;;;;;;;8.50;79.90;;;;;;4166130;28;19917;-85
2023/10/27 03:07:01;;;;;;;;;;;8.40;80.00;;;;;;4180677;28;19921;-85
2023/10/27 03:09:21;;;;;;;;;;;8.50;80.30;;;;;;4165661;28;19956;-87
2023/10/27 03:11:42;;;;;;;;;;;8.40;80.30;;;;;;4178030;28;19917;-85
2023/10/27 03:14:02;;;;;;;;;;;8.30;80.50;;;;;;4171655;28;19913;-84
2023/10/27 03:16:23;;;;;;;;;;;8.40;80.70;;;;;;4179603;28;19924;-85
2023/10/27 03:18:44;;;;;;;;;;;8.50;81.00;;;;;;4173700;28;19917;-84
2023/10/27 03:21:05;;;;;;;;;;;8.50;81.20;;;;;;4162856;28;19921;-86
2023/10/27 03:23:26;;;;;;;;;;;8.50;81.20;;;;;;4175883;28;19913;-86
2023/10/27 03:25:47;;;;;;;;;;;8.40;81.10;;;;;;4164318;28;19925;-84
2023/10/27 03:28:08;;;;;;;;;;;8.40;81.40;;;;;;4178590;28;19920;-86
2023/10/27 03:30:28;;;;;;;;;;;8.60;81.40;;;;;;4182349;28;19912;-84
2023/10/27 03:32:49;;;;;;;;;;;8.60;81.40;;;;;;4181813;28;19921;-85
2023/10/27 03:35:09;;;;;;;;;;;8.60;81.30;;;;;;4171240;28;19913;-86
2023/10/27 03:37:30;;;;;;;;;;;8.40;81.10;;;;;;4169964;28;19924;-84
2023/10/27 03:39:51;;;;;;;;;;;8.50;81.50;;;;;;4162928;28;20047;-85
2023/10/27 03:42:11;;;;;;;;;;;8.50;81.40;;;;;;4160963;28;19914;-86
2023/10/27 03:44:32;;;;;;;;;;;8.60;81.60;;;;;;4176515;28;19919;-85
2023/10/27 03:46:53;;;;;;;;;;;8.60;82.00;;;;;;4173803;28;19921;-84
2023/10/27 03:49:13;;;;;;;;;;;8.50;81.90;;;;;;4171978;28;19913;-85
2023/10/27 03:51:36;;;;;;;;;;;8.60;81.90;;;;;;4175565;28;19921;-85
2023/10/27 03:53:57;;;;;;;;;;;8.50;81.60;;;;;;4177079;28;19916;-84
2023/10/27 03:56:20;;;;;;;;;;;8.40;81.80;;;;;;4191719;28;19912;-85
2023/10/27 03:58:41;;;;;;;;;;;8.30;81.70;;;;;;4173688;28;19924;-86
2023/10/27 04:01:01;;;;;;;;;;;8.30;82.60;;;;;;4177396;28;19923;-86
2023/10/27 04:03:22;;;;;;;;;;;8.40;82.10;;;;;;4157318;28;19947;-85
2023/10/27 04:05:43;;;;;;;;;;;8.40;81.80;;;;;;4176641;28;20024;-85
2023/10/27 04:08:07;;;;;;;;;;;8.40;81.80;;;;;;4161382;28;19952;-86
2023/10/27 04:10:31;;;;;;;;;;;8.20;81.50;;;;;;4156246;28;19921;-86
2023/10/27 04:12:52;;;;;;;;;;;8.20;81.60;;;;;;4158582;28;19928;-84
2023/10/27 04:15:15;;;;;;;;;;;8.30;81.70;;;;;;4157640;28;19934;-86
2023/10/27 04:17:36;;;;;;;;;;;8.20;81.70;;;;;;4172932;28;19913;-86
2023/10/27 04:19:56;;;;;;;;;;;8.30;81.90;;;;;;4173930;28;19913;-84
2023/10/27 04:22:17;;;;;;;;;;;8.20;82.10;;;;;;4173228;28;19916;-85
2023/10/27 04:24:38;;;;;;;;;;;8.30;81.70;;;;;;4156066;28;19986;-87
2023/10/27 04:26:57;;;;;;;;;;;8.20;81.40;;;;;;4171318;28;20020;-86
2023/10/27 04:29:17;;;;;;;;;;;8.30;82.40;;;;;;4172114;28;19920;-85
2023/10/27 04:31:47;;;;;;;;;;;8.20;82.00;;;;;;4161717;28;21861;-87
2023/10/27 04:34:08;;;;;;;;;;;8.20;82.20;;;;;;4157028;28;19923;-86
2023/10/27 04:36:27;;;;;;;;;;;8.20;82.80;;;;;;4159506;28;19972;-88
2023/10/27 04:38:47;;;;;;;;;;;8.10;82.60;;;;;;4175118;28;19970;-85
2023/10/27 04:41:06;;;;;;;;;;;8.20;82.50;;;;;;4172961;28;19990;-85
2023/10/27 04:43:26;;;;;;;;;;;8.20;83.00;;;;;;4170873;28;19986;-86
2023/10/27 04:45:45;;;;;;;;;;;8.10;82.10;;;;;;4178604;28;19979;-85
2023/10/27 04:48:07;;;;;;;;;;;8.20;82.30;;;;;;4173837;28;19952;-85
2023/10/27 04:50:27;;;;;;;;;;;8.20;82.50;;;;;;4173843;28;19943;-86
2023/10/27 04:52:46;;;;;;;;;;;8.10;82.40;;;;;;4173218;28;20007;-85
2023/10/27 04:55:06;;;;;;;;;;;8.40;82.50;;;;;;4178860;28;19924;-85
2023/10/27 04:57:25;;;;;;;;;;;8.20;82.50;;;;;;4162025;28;19967;-85
2023/10/27 04:59:45;;;;;;;;;;;8.30;82.50;;;;;;4180522;28;19923;-85
2023/10/27 05:02:04;;;;;;;;;;;8.20;82.10;;;;;;4185360;28;20048;-85
2023/10/27 05:04:25;;;;;;;;;;;8.20;82.00;;;;;;4178667;28;19931;-85
2023/10/27 05:06:44;;;;;;;;;;;8.20;81.90;;;;;;4174592;28;20390;-86
2023/10/27 05:09:06;;;;;;;;;;;8.30;81.90;;;;;;4180322;28;19970;-86
2023/10/27 05:11:26;;;;;;;;;;;8.10;81.70;;;;;;4180033;28;19920;-85
2023/10/27 05:13:45;;;;;;;;;;;8.40;81.90;;;;;;4183139;28;19924;-86
2023/10/27 05:16:05;;;;;;;;;;;8.30;81.70;;;;;;4179787;28;19932;-86
2023/10/27 05:18:24;;;;;;;;;;;8.20;82.00;;;;;;4160116;28;20460;-86
2023/10/27 05:20:44;;;;;;;;;;;8.20;82.20;;;;;;4163893;28;19996;-84
2023/10/27 05:23:03;;;;;;;;;;;8.20;81.90;;;;;;4177041;28;19920;-88
2023/10/27 05:25:22;;;;;;;;;;;8.10;81.30;;;;;;4173804;28;19928;-85
2023/10/27 05:27:44;;;;;;;;;;;8.20;81.60;;;;;;4179504;28;20529;-85
2023/10/27 05:30:06;;;;;;;;;;;8.20;81.70;;;;;;4163675;28;19987;-86
2023/10/27 05:32:25;;;;;;;;;;;8.00;82.10;;;;;;4163315;28;19975;-85
2023/10/27 05:34:45;;;;;;;;;;;8.10;82.10;;;;;;4173269;28;19978;-85
2023/10/27 05:37:04;;;;;;;;;;;8.10;83.00;;;;;;4164591;28;20410;-85
2023/10/27 05:39:26;;;;;;;;;;;8.10;82.50;;;;;;4160415;28;19925;-86
2023/10/27 05:41:27;;;;;;;;;;;8.10;82.40;;;;;;4173244;28;20003;-86
2023/10/27 05:43:27;;;;;;;;;;;8.10;82.90;;;;;;4142355;28;19930;-86
2023/10/27 05:45:28;;;;;;;;;;;8.20;82.80;;;;;;4142576;28;20018;-85
2023/10/27 05:47:29;;;;;;;;;;;8.20;82.80;;;;;;4173546;28;19948;-85
2023/10/27 05:49:29;;;;;;;;;;;8.10;82.70;;;;;;4156006;28;19921;-84
2023/10/27 05:51:34;;;;;;;;;;;8.20;82.70;;;;;;4180563;28;19913;-84
2023/10/27 05:53:55;;;;;;;;;;;8.20;82.70;;;;;;4181501;28;19916;-85
2023/10/27 05:56:15;;;;;;;;;;;8.20;82.50;;;;;;4161352;28;19971;-84
2023/10/27 05:58:36;;;;;;;;;;;8.20;82.50;;;;;;4175885;28;19913;-84
2023/10/27 06:00:57;;;;;;;;;;;8.20;82.50;;;;;;4160627;28;19998;-85
2023/10/27 06:03:17;;;;;;;;;;;8.20;82.60;;;;;;4185041;28;20016;-85
2023/10/27 06:05:40;;;;;;;;;;;8.30;83.00;;;;;;4185836;28;19932;-85
2023/10/27 06:08:04;;;;;;;;;;;8.10;83.20;;;;;;4182305;28;19966;-87
2023/10/27 06:10:24;;;;;;;;;;;8.10;83.20;;;;;;4160723;28;19921;-85
2023/10/27 06:12:45;;;;;;;;;;;8.10;83.30;;;;;;4160059;28;19917;-85
2023/10/27 06:15:06;;;;;;;;;;;8.20;83.30;;;;;;4174926;28;19916;-85
2023/10/27 06:17:26;;;;;;;;;;;8.20;83.00;;;;;;4164229;28;19925;-85
2023/10/27 06:19:47;;;;;;;;;;;8.10;82.70;;;;;;4192118;28;19921;-84
2023/10/27 06:22:09;;;;;;;;;;;8.00;83.10;;;;;;4182311;28;19915;-87
2023/10/27 06:24:29;;;;;;;;;;;8.10;83.10;;;;;;4193401;28;19917;-84
2023/10/27 06:26:30;;;;;;;;;;;8.10;83.20;;;;;;4180648;28;19917;-85
2023/10/27 06:28:52;;;;;;;;;;;8.10;83.30;;;;;;4179803;28;19921;-85
2023/10/27 06:31:13;;;;;;;;;;;8.00;82.90;;;;;;4180768;28;19912;-85
2023/10/27 06:33:36;;;;;;;;;;;8.20;82.90;;;;;;4175181;28;19984;-87
2023/10/27 06:35:56;;;;;;;;;;;8.10;82.70;;;;;;4175661;28;19920;-85
2023/10/27 06:38:17;;;;;;;;;;;8.00;82.80;;;;;;4173336;28;19917;-85
2023/10/27 06:40:37;;;;;;;;;;;7.80;82.70;;;;;;4176397;28;19995;-85
2023/10/27 06:42:58;;;;;;;;;;;7.90;82.90;;;;;;4179956;28;19957;-86
2023/10/27 06:45:24;;;;;;;;;;;8.10;83.00;;;;;;4180061;28;19928;-87
2023/10/27 06:47:48;;;;;;;;;;;7.90;82.80;;;;;;4164635;28;19917;-86
2023/10/27 06:50:09;;;;;;;;;;;8.00;83.30;;;;;;4168678;28;19924;-85
2023/10/27 06:52:30;;;;;;;;;;;7.90;82.90;;;;;;4176513;28;19917;-85
2023/10/27 06:55:01;;;;;;;;;;;;;;;;;;;;;
2023/10/27 06:57:22;;;;;;;;;;;8.00;83.40;;;;;;4177351;28;19927;-85
2023/10/27 06:59:42;;;;;;;;;;;8.00;84.10;;;;;;4181385;28;19920;-85
2023/10/27 07:02:03;;;;;;;;;;;8.10;83.30;;;;;;4174007;28;19923;-86
2023/10/27 07:04:24;;;;;;;;;;;8.00;83.90;;;;;;4161038;28;19917;-84
2023/10/27 07:06:44;;;;;;;;;;;8.00;83.30;;;;;;4166821;28;19939;-83
2023/10/27 07:09:05;;;;;;;;;;;8.10;83.10;;;;;;4177398;28;19909;-85
2023/10/27 07:11:17;;;;;;;;;;;8.10;82.80;;;;;;4174865;28;19917;-87
2023/10/27 07:13:17;;;;;;;;;;;8.10;82.70;;;;;;4178379;28;19928;-85
2023/10/27 07:15:19;;;;;;;;;;;8.10;82.60;;;;;;4194620;28;19920;-86
2023/10/27 07:17:19;;;;;;;;;;;8.10;82.20;;;;;;4193356;28;20034;-86
2023/10/27 07:19:20;;;;;;;;;;;8.00;82.30;;;;;;4191695;28;19913;-86
2023/10/27 07:21:21;;;;;;;;;;;8.10;83.00;;;;;;4194819;28;19917;-84
2023/10/27 07:23:22;;;;;;;;;;;8.00;82.00;;;;;;4175146;28;19931;-85
2023/10/27 07:25:24;;;;;;;;;;;8.00;82.00;;;;;;4196517;28;19916;-84
2023/10/27 07:27:28;;;;;;;;;;;8.00;82.00;;;;;;4193748;28;19912;-86
2023/10/27 07:29:28;;;;;;;;;;;8.10;82.30;;;;;;4189488;28;19998;-86
2023/10/27 07:31:29;;;;;;;;;;;8.00;82.30;;;;;;4193671;28;19917;-85
2023/10/27 07:33:31;;;;;;;;;;;8.00;82.40;;;;;;4192154;28;19908;-83
2023/10/27 07:35:33;;;;;;;;;;;8.00;82.30;;;;;;4192520;28;19914;-86
2023/10/27 07:37:54;;;;;;;;;;;7.90;82.40;;;;;;4195660;28;19920;-86
2023/10/27 07:39:55;;;;;;;;;;;8.00;83.50;;;;;;4193746;28;19912;-86
2023/10/27 07:42:16;;;;;;;;;;;7.90;82.40;;;;;;4205602;28;19927;-85
2023/10/27 07:44:36;;;;;;;;;;;8.00;82.70;;;;;;4190272;28;19912;-85
2023/10/27 07:46:57;;;;;;;;;;;8.00;82.50;;;;;;4190751;28;19921;-85
2023/10/27 07:49:17;;;;;;;;;;;7.90;82.40;;;;;;4193084;28;19916;-85
2023/10/27 07:51:38;;;;;;;;;;;7.90;82.60;;;;;;4194171;28;19959;-85
2023/10/27 07:53:59;;;;;;;;;;;7.90;82.30;;;;;;4193988;28;19995;-85
2023/10/27 07:56:20;;;;;;;;;;;8.00;82.40;;;;;;4197531;28;20009;-85
2023/10/27 07:58:40;;;;;;;;;;;8.00;82.60;;;;;;4205044;28;19920;-85
2023/10/27 08:01:01;;;;;;;;;;;8.10;82.60;;;;;;4212561;28;19908;-86
2023/10/27 08:03:22;;;;;;;;;;;8.00;82.40;;;;;;4211493;28;19940;-84
2023/10/27 08:05:43;;;;;;;;;;;8.10;82.50;;;;;;4212621;28;19971;-84
2023/10/27 08:08:03;;;;;;;;;;;8.10;82.40;;;;;;4225805;28;19904;-87
2023/10/27 08:10:24;;;;;;;;;;;8.10;82.20;;;;;;4208420;28;20002;-86
2023/10/27 08:12:45;;;;;;;;;;;8.10;82.10;;;;;;4199515;28;19965;-85
2023/10/27 08:15:06;;;;;;;;;;;8.00;81.90;;;;;;4208506;28;19983;-85
2023/10/27 08:17:27;;;;;;;;;;;8.10;82.20;;;;;;4209756;28;19916;-85
2023/10/27 08:19:29;;;;;;;;;;;8.20;82.10;;;;;;4195700;28;20359;-84
2023/10/27 08:21:50;;;;;;;;;;;8.20;82.00;;;;;;4193939;28;19920;-85
2023/10/27 08:24:10;;;;;;;;;;;8.20;82.00;;;;;;4194695;28;20731;-84
2023/10/27 08:26:31;;;;;;;;;;;8.20;82.00;;;;;;4208440;28;19927;-85
2023/10/27 08:28:51;;;;;;;;;;;8.30;82.00;;;;;;4193435;28;19921;-86
2023/10/27 08:31:12;;;;;;;;;;;8.30;82.10;;;;;;4190641;28;19912;-84
2023/10/27 08:33:36;;;;;;;;;;;8.20;81.90;;;;;;4193296;28;19912;-85
2023/10/27 08:36:01;;;;;;;;;;;8.10;81.70;;;;;;4193414;28;19980;-84
2023/10/27 08:38:01;;;;;;;;;;;8.20;82.30;;;;;;4195467;28;19971;-85
2023/10/27 08:40:03;;;;;;;;;;;8.30;82.40;;;;;;4193856;28;19912;-84
2023/10/27 08:42:04;;;;;;;;;;;8.30;82.20;;;;;;4192785;28;19978;-85
2023/10/27 08:44:05;;;;;;;;;;;8.30;82.00;;;;;;4190352;28;19916;-85
2023/10/27 08:46:06;;;;;;;;;;;8.20;82.30;;;;;;4194393;28;19924;-84
2023/10/27 08:48:07;;;;;;;;;;;8.40;82.50;;;;;;4178763;28;19913;-85
2023/10/27 08:50:08;;;;;;;;;;;8.30;82.30;;;;;;4194740;28;19913;-84
2023/10/27 08:52:09;;;;;;;;;;;8.30;82.40;;;;;;4191964;28;19935;-85
2023/10/27 08:54:10;;;;;;;;;;;8.30;82.50;;;;;;4192987;28;19917;-85
2023/10/27 08:56:30;;;;;;;;;;;8.50;82.70;;;;;;4192420;28;19923;-84
2023/10/27 08:58:51;;;;;;;;;;;8.40;82.60;;;;;;4193116;28;19916;-85
2023/10/27 09:00:52;;;;;;;;;;;8.40;82.50;;;;;;4196293;28;19924;-84
2023/10/27 09:03:14;;;;;;;;;;;8.40;82.50;;;;;;4205746;28;19912;-85
2023/10/27 09:05:35;;;;;;;;;;;8.50;82.60;;;;;;4195585;28;19999;-85
2023/10/27 09:07:47;;;;;;;;;;;8.40;82.50;;;;;;4194013;28;19923;-86
2023/10/27 09:10:08;;;;;;;;;;;8.50;82.60;;;;;;4195883;28;19923;-84
2023/10/27 09:12:30;;;;;;;;;;;8.40;82.50;;;;;;4190944;28;19977;-85
2023/10/27 09:14:59;;;;;;;;;;;8.30;82.40;;;;;;4188168;28;19928;-84
2023/10/27 09:17:19;;;;;;;;;;;8.20;82.40;;;;;;4190828;28;20016;-84
2023/10/27 09:19:41;;;;;;;;;;;8.20;82.10;;;;;;4191779;28;19967;-85
2023/10/27 09:22:05;;;;;;;;;;;8.30;82.30;;;;;;4190906;28;19912;-85
2023/10/27 09:24:25;;;;;;;;;;;8.20;82.40;;;;;;4195654;28;20010;-84
2023/10/27 09:26:46;;;;;;;;;;;8.30;82.70;;;;;;4197136;28;19988;-84
2023/10/27 09:28:58;;;;;;;;;;;8.30;82.60;;;;;;4174610;28;19913;-84
2023/10/27 09:30:59;;;;;;;;;;;8.30;82.20;;;;;;4171379;28;19962;-84
2023/10/27 09:33:16;;;;;;;;;;;8.30;82.10;;;;;;4195674;28;19923;-84
2023/10/27 09:35:18;;;;;;;;;;;8.30;82.20;;;;;;4191218;28;19913;-85
2023/10/27 09:37:41;;;;;;;;;;;8.30;82.10;;;;;;4193422;28;20015;-86
2023/10/27 09:40:08;;;;;;;;;;;8.30;82.00;;;;;;4206267;28;19919;-85
2023/10/27 09:42:14;;;;;;;;;;;8.30;81.90;;;;;;4170681;28;19912;-85
2023/10/27 09:44:37;;;;;;;;;;;8.40;81.90;;;;;;4191590;28;19920;-84
2023/10/27 09:47:01;;;;;;;;;;;8.30;82.10;;;;;;4190311;28;19963;-85
2023/10/27 09:49:30;;;;;;;;;;;8.30;81.90;;;;;;4191699;28;19913;-85
2023/10/27 09:51:55;;;;;;;;;;;8.30;81.90;;;;;;4191194;28;19968;-84
2023/10/27 09:54:15;;;;;;;;;;;8.40;81.90;;;;;;4188965;28;20039;-84
2023/10/27 09:56:36;;;;;;;;;;;8.10;81.50;;;;;;4192471;28;19926;-84
2023/10/27 09:58:57;;;;;;;;;;;8.20;81.70;;;;;;4204044;28;19920;-85
2023/10/27 10:01:19;;;;;;;;;;;8.30;82.00;;;;;;4192474;28;19921;-85
2023/10/27 10:03:43;;;;;;;;;;;8.40;81.70;;;;;;4193107;28;20003;-86
2023/10/27 10:06:19;;;;;;;;;;;8.30;81.30;;;;;;4202854;28;20011;-84
2023/10/27 10:08:40;;;;;;;;;;;8.20;81.10;;;;;;4204405;28;19920;-85
2023/10/27 10:11:11;;;;;;;;;;;8.30;81.40;;;;;;4201883;28;19923;-85
2023/10/27 10:13:36;;;;;;;;;;;8.30;81.50;;;;;;4210283;28;19920;-85
2023/10/27 10:15:58;;;;;;;;;;;8.40;81.70;;;;;;4195683;28;19973;-85
2023/10/27 10:18:19;;;;;;;;;;;8.40;81.70;;;;;;4197332;28;20019;-86
2023/10/27 10:21:16;;;;;;;;;;;8.50;81.80;;;;;;4200032;28;19923;-85
2023/10/27 10:23:13;;;;;;;;;;;8.50;81.20;;;;;;4191071;28;19927;-84
2023/10/27 10:25:14;;;;;;;;;;;8.40;81.10;;;;;;4194061;28;19916;-84
2023/10/27 10:27:15;;;;;;;;;;;8.50;81.20;;;;;;4192171;28;20015;-85
2023/10/27 10:29:27;;;;;;;;;;;8.60;81.40;;;;;;4193990;28;19919;-85
2023/10/27 10:31:29;;;;;;;;;;;8.40;81.20;;;;;;4197405;28;19917;-85
2023/10/27 10:33:30;;;;;;;;;;;8.40;81.00;;;;;;4218391;28;19930;-83
2023/10/27 10:35:34;;;;;;;;;;;8.30;80.80;;;;;;4202879;28;19982;-85
2023/10/27 10:37:38;;;;;;;;;;;8.30;80.90;;;;;;4192543;28;19920;-85
2023/10/27 10:40:03;;;;;;;;;;;8.40;81.00;;;;;;4193191;28;19920;-85
2023/10/27 10:42:04;;;;;;;;;;;8.30;81.30;;;;;;4183599;28;19920;-83
2023/10/27 10:44:12;;;;;;;;;;;8.30;81.50;;;;;;4194398;28;19923;-85
2023/10/27 10:46:16;;;;;;;;;;;8.40;81.40;;;;;;4197814;28;20011;-84
2023/10/27 10:48:18;;;;;;;;;;;8.40;81.50;;;;;;4196083;28;19917;-85
2023/10/27 10:50:38;;;;;;;;;;;8.50;81.60;;;;;;4194875;28;19942;-84
2023/10/27 10:52:39;;;;;;;;;;;8.40;82.20;;;;;;4191055;28;19924;-86
2023/10/27 10:55:00;;;;;;;;;;;8.30;81.60;;;;;;4192149;28;19916;-84
2023/10/27 10:57:20;;;;;;;;;;;8.40;81.50;;;;;;4193756;28;20049;-84
2023/10/27 10:59:51;;;;;;;;;;;8.40;81.50;;;;;;4196698;28;20042;-84
2023/10/27 11:02:12;;;;;;;;;;;8.30;81.80;;;;;;4195074;28;19928;-84
2023/10/27 11:04:34;;;;;;;;;;;8.30;82.30;;;;;;4195858;28;19923;-84
2023/10/27 11:06:57;;;;;;;;;;;8.30;82.60;;;;;;4192591;28;19964;-83
2023/10/27 11:09:23;;;;;;;;;;;8.30;82.90;;;;;;4192208;28;19950;-83
2023/10/27 11:11:43;;;;;;;;;;;8.30;83.10;;;;;;4189907;28;19917;-85
2023/10/27 11:13:45;;;;;;;;;;;8.30;83.20;;;;;;4187910;28;19916;-87
2023/10/27 11:15:49;;;;;;;;;;;8.30;83.40;;;;;;4186842;28;19950;-84
2023/10/27 11:17:52;;;;;;;;;;;8.30;83.60;;;;;;4191188;28;19912;-85
2023/10/27 11:19:55;;;;;;;;;;;8.20;84.00;;;;;;4193955;28;19971;-84
2023/10/27 11:21:59;;;;;;;;;;;8.20;84.60;;;;;;4193894;28;19986;-83
2023/10/27 11:24:06;;;;;;;;;;;8.20;85.00;;;;;;4193052;28;19928;-84
2023/10/27 11:26:06;;;;;;;;;;;8.20;84.80;;;;;;4198610;28;19928;-85
2023/10/27 11:28:27;;;;;;;;;;;8.20;84.70;;;;;;4217090;28;19920;-83
2023/10/27 11:30:28;;;;;;;;;;;8.10;84.80;;;;;;4180756;28;19928;-84
2023/10/27 11:33:05;;;;;;;;;;;8.10;85.10;;;;;;4194350;28;19928;-85
2023/10/27 11:35:07;;;;;;;;;;;8.10;85.40;;;;;;4191195;28;19920;-84
2023/10/27 11:37:29;;;;;;;;;;;8.10;85.50;;;;;;4193226;28;19923;-85
2023/10/27 11:39:50;;;;;;;;;;;8.20;85.80;;;;;;4197917;28;19970;-84
2023/10/27 11:42:10;;;;;;;;;;;8.30;85.80;;;;;;4190733;28;19928;-86
2023/10/27 11:44:35;;;;;;;;;;;8.10;85.80;;;;;;4190039;28;19921;-85
2023/10/27 11:46:36;;;;;;;;;;;8.10;85.90;;;;;;4191569;28;19928;-86
2023/10/27 11:48:37;;;;;;;;;;;8.10;85.80;;;;;;4175089;28;20034;-85
2023/10/27 11:50:38;;;;;;;;;;;8.10;85.80;;;;;;4185427;28;20531;-85
2023/10/27 11:52:38;;;;;;;;;;;8.20;85.80;;;;;;4190972;28;19981;-85
2023/10/27 11:54:39;;;;;;;;;;;8.30;85.60;;;;;;4192180;28;19916;-85
2023/10/27 11:56:40;;;;;;;;;;;8.20;85.70;;;;;;4194446;28;19928;-85
2023/10/27 11:58:41;;;;;;;;;;;8.30;85.60;;;;;;4226768;22;19933;-83
2023/10/27 12:00:41;;;;;;;;;;;8.30;85.50;;;;;;4174369;28;20053;-82
2023/10/27 12:03:02;;;;;;;;;;;8.10;85.40;;;;;;4176268;28;19920;-83
2023/10/27 12:05:03;;;;;;;;;;;8.10;85.50;;;;;;4178039;28;19923;-84
2023/10/27 12:07:23;;;;;;;;;;;8.00;85.10;;;;;;4177101;28;19925;-85
2023/10/27 12:09:31;;;;;;;;;;;8.20;85.30;;;;;;4177890;28;20523;-81
2023/10/27 12:11:52;;;;;;;;;;;8.20;85.30;;;;;;4173011;28;19948;-81
2023/10/27 12:14:12;;;;;;;;;;;8.20;85.10;;;;;;4174133;28;19995;-81
2023/10/27 12:16:34;;;;;;;;;;;8.20;85.10;;;;;;4176114;28;19919;-83
2023/10/27 12:18:55;;;;;;;;;;;8.40;85.00;;;;;;4173497;28;19959;-83
2023/10/27 12:21:16;;;;;;;;;;;8.20;84.80;;;;;;4175252;28;19919;-84
2023/10/27 12:23:37;;;;;;;;;;;8.20;84.90;;;;;;4177329;28;19924;-83
2023/10/27 12:26:00;;;;;;;;;;;8.20;84.80;;;;;;4176313;28;19925;-82
2023/10/27 12:28:23;;;;;;;;;;;8.30;84.70;;;;;;4177825;28;19966;-84
2023/10/27 12:30:44;;;;;;;;;;;8.20;84.30;;;;;;4190132;28;19924;-83
2023/10/27 12:33:05;;;;;;;;;;;8.30;84.30;;;;;;4175471;28;19917;-84
2023/10/27 12:35:25;;;;;;;;;;;8.30;84.40;;;;;;4175784;28;19932;-84
2023/10/27 12:37:26;;;;;;;;;;;8.40;84.20;;;;;;4174665;28;19920;-82
2023/10/27 12:39:27;;;;;;;;;;;8.40;84.40;;;;;;4157568;28;19913;-83
2023/10/27 12:41:30;;;;;;;;;;;8.40;84.30;;;;;;4158919;28;19917;-83
2023/10/27 12:43:54;;;;;;;;;;;8.40;84.40;;;;;;4176429;28;20044;-83
2023/10/27 12:46:15;;;;;;;;;;;8.30;84.40;;;;;;4176601;28;20013;-84
2023/10/27 12:48:16;;;;;;;;;;;8.50;84.50;;;;;;4175297;28;20015;-84
2023/10/27 12:50:36;;;;;;;;;;;8.40;84.70;;;;;;4171903;28;19919;-84
2023/10/27 12:52:57;;;;;;;;;;;8.50;84.60;;;;;;4174425;28;19920;-82
2023/10/27 12:55:18;;;;;;;;;;;8.40;84.90;;;;;;4189430;28;19921;-84
2023/10/27 12:57:41;;;;;;;;;;;8.50;84.60;;;;;;4178138;28;19913;-84
2023/10/27 13:00:11;;;;;;;;;;;8.40;84.00;;;;;;4117783;28;1734196;-84
2023/10/27 13:02:31;;;;;;;;;;;8.40;84.10;;;;;;4176286;28;19952;-84
2023/10/27 13:04:56;;;;;;;;;;;8.40;84.20;;;;;;4176367;28;19957;-84
2023/10/27 13:06:57;;;;;;;;;;;8.50;84.20;;;;;;4175903;28;19962;-83
2023/10/27 13:08:58;;;;;;;;;;;8.40;83.90;;;;;;4175495;28;19921;-83
2023/10/27 13:11:02;;;;;;;;;;;8.50;84.00;;;;;;4157234;28;19928;-84
2023/10/27 13:13:03;;;;;;;;;;;8.50;83.90;;;;;;4177308;28;19940;-83
2023/10/27 13:15:05;;;;;;;;;;;8.50;84.20;;;;;;4157892;28;19913;-82
2023/10/27 13:17:06;;;;;;;;;;;8.40;84.20;;;;;;4175896;28;20007;-82
2023/10/27 13:19:08;;;;;;;;;;;8.40;84.20;;;;;;4174536;28;20475;-85
2023/10/27 13:21:28;;;;;;;;;;;8.40;84.30;;;;;;4175021;28;19917;-84
2023/10/27 13:23:49;;;;;;;;;;;8.50;84.30;;;;;;4176745;28;19952;-85
2023/10/27 13:26:00;;;;;;;;;;;8.50;84.00;;;;;;4157396;28;19925;-84